Time;durP1;ratioP1;P1;durP2;ratioP2;P2;SDS_P1;SDS_P2;PMS_P1;PMS_P2;Temp;Humidity;BMP_temperature;BMP_pressure;BME280_temperature;BME280_humidity;BME280_pressure;Samples;Min_cycle;Max_cycle;Signal;HPM_P1;HPM_P2
2022/01/30 00:01:20;;;;;;;4.80;4.27;;;;;;;;;;4992932;28;20584;-77
2022/01/30 00:03:49;;;;;;;5.83;4.20;;;;;;;;;;4992585;28;20673;-77
2022/01/30 00:06:16;;;;;;;6.37;4.77;;;;;;;;;;4992548;28;20610;-79
2022/01/30 00:08:44;;;;;;;5.37;4.20;;;;;;;;;;4992909;28;20613;-77
2022/01/30 00:11:15;;;;;;;4.33;3.50;;;;;;;;;;4992577;28;20196;-77
2022/01/30 00:13:43;;;;;;;4.90;3.73;;;;;;;;;;4992548;28;20212;-77
2022/01/30 00:16:11;;;;;;;4.33;3.90;;;;;;;;;;4992530;28;20196;-77
2022/01/30 00:18:50;;;;;;;6.60;5.30;;;;;;;;;;4992809;28;20204;-77
2022/01/30 00:21:31;;;;;;;5.70;5.20;;;;;;;;;;4992453;28;20188;-77
2022/01/30 00:24:03;;;;;;;6.03;4.90;;;;;;;;;;4992797;28;20616;-77
2022/01/30 00:26:33;;;;;;;6.03;5.10;;;;;;;;;;4990687;28;20673;-77
2022/01/30 00:29:00;;;;;;;5.20;4.60;;;;;;;;;;4994617;28;20616;-77
2022/01/30 00:31:27;;;;;;;5.00;4.43;;;;;;;;;;4996400;28;20203;-77
2022/01/30 00:33:55;;;;;;;4.23;3.83;;;;;;;;;;4996257;28;20775;-77
2022/01/30 00:36:24;;;;;;;5.13;4.43;;;;;;;;;;4996168;28;20228;-77
2022/01/30 00:38:51;;;;;;;5.27;4.20;;;;;;;;;;4996207;28;20603;-78
2022/01/30 00:41:19;;;;;;;5.20;4.60;;;;;;;;;;4996422;28;20582;-77
2022/01/30 00:43:46;;;;;;;6.67;5.63;;;;;;;;;;4996241;28;20196;-77
2022/01/30 00:46:13;;;;;;;7.80;5.10;;;;;;;;;;4996034;28;20208;-77
2022/01/30 00:48:40;;;;;;;5.20;4.70;;;;;;;;;;4996108;28;20200;-77
2022/01/30 00:51:08;;;;;;;7.17;5.20;;;;;;;;;;4996102;28;20211;-77
2022/01/30 00:53:36;;;;;;;7.90;5.80;;;;;;;;;;4995829;28;20211;-77
2022/01/30 00:56:04;;;;;;;6.57;5.10;;;;;;;;;;4995948;28;20756;-79
2022/01/30 00:58:32;;;;;;;5.77;5.23;;;;;;;;;;4995922;28;20202;-77
2022/01/30 01:00:59;;;;;;;6.90;5.97;;;;;;;;;;4996199;28;20208;-77
2022/01/30 01:03:26;;;;;;;7.83;6.33;;;;;;;;;;4995757;28;20211;-77
2022/01/30 01:05:53;;;;;;;7.97;5.83;;;;;;;;;;4995699;28;20214;-77
2022/01/30 01:08:29;;;;;;;10.50;8.17;;;;;;;;;;4995804;28;20192;-77
2022/01/30 01:11:11;;;;;;;15.50;10.40;;;;;;;;;;4995681;28;20188;-78
2022/01/30 01:14:07;;;;;;;12.90;9.13;;;;;;;;;;4995643;28;20279;-78
2022/01/30 01:24:58;;;;;;;16.33;14.63;;;;;;;;;;4981540;28;20300;-78
2022/01/30 01:27:27;;;;;;;15.73;14.07;;;;;;;;;;4995321;28;20588;-78
2022/01/30 01:29:54;;;;;;;16.97;12.67;;;;;;;;;;4995345;28;20203;-77
2022/01/30 01:32:21;;;;;;;29.57;17.07;;;;;;;;;;4995297;28;20196;-77
2022/01/30 01:34:48;;;;;;;16.80;11.43;;;;;;;;;;4995188;28;20224;-77
2022/01/30 01:37:16;;;;;;;13.97;8.00;;;;;;;;;;4995135;28;20263;-77
2022/01/30 01:39:43;;;;;;;10.10;7.47;;;;;;;;;;4994086;28;20304;-78
2022/01/30 01:42:10;;;;;;;12.20;8.47;;;;;;;;;;4995058;28;20200;-77
2022/01/30 01:44:43;;;;;;;7.60;5.97;;;;;;;;;;4995072;28;20196;-77
2022/01/30 01:47:11;;;;;;;6.50;5.70;;;;;;;;;;4995012;28;20576;-77
2022/01/30 01:49:39;;;;;;;9.47;4.87;;;;;;;;;;4995086;28;20207;-77
2022/01/30 01:52:20;;;;;;;5.93;4.70;;;;;;;;;;4994894;28;20203;-77
2022/01/30 01:54:49;;;;;;;6.57;5.00;;;;;;;;;;4994858;28;20208;-77
2022/01/30 01:57:16;;;;;;;6.03;4.70;;;;;;;;;;4994774;28;20655;-77
2022/01/30 01:59:45;;;;;;;5.37;4.60;;;;;;;;;;4994782;28;20204;-77
2022/01/30 02:02:12;;;;;;;5.00;4.50;;;;;;;;;;4994973;28;20264;-78
2022/01/30 02:04:41;;;;;;;5.77;4.97;;;;;;;;;;4994757;28;20299;-77
2022/01/30 02:09:49;;;;;;;10.60;6.80;;;;;;;;;;4972513;28;20196;-77
2022/01/30 02:12:20;;;;;;;9.53;7.83;;;;;;;;;;4994563;28;20196;-77
2022/01/30 02:15:04;;;;;;;10.60;7.67;;;;;;;;;;4994435;28;20670;-77
2022/01/30 02:26:00;;;;;;;6.83;4.47;;;;;;;;;;4992146;28;20203;-77
2022/01/30 02:28:29;;;;;;;6.40;5.10;;;;;;;;;;4994553;28;20200;-77
2022/01/30 02:31:00;;;;;;;22.03;13.27;;;;;;;;;;4994503;28;20723;-77
2022/01/30 02:33:27;;;;;;;26.87;16.27;;;;;;;;;;4994128;28;20196;-77
2022/01/30 02:35:55;;;;;;;66.07;38.20;;;;;;;;;;4994076;28;20255;-77
2022/01/30 02:38:24;;;;;;;38.37;24.03;;;;;;;;;;4994084;28;20642;-77
2022/01/30 02:40:54;;;;;;;22.77;14.43;;;;;;;;;;4994439;28;20200;-77
2022/01/30 02:43:26;;;;;;;15.03;9.03;;;;;;;;;;4993960;28;20216;-77
2022/01/30 02:46:04;;;;;;;12.57;8.93;;;;;;;;;;4994279;28;20242;-77
2022/01/30 02:48:46;;;;;;;20.97;13.67;;;;;;;;;;4993862;28;20646;-77
2022/01/30 02:51:14;;;;;;;6.70;5.60;;;;;;;;;;4993518;28;20641;-76
2022/01/30 02:53:46;;;;;;;7.10;5.60;;;;;;;;;;4994097;28;20287;-77
2022/01/30 02:56:14;;;;;;;9.73;7.40;;;;;;;;;;4993721;28;20212;-77
2022/01/30 02:58:41;;;;;;;21.23;13.20;;;;;;;;;;4993658;28;20296;-77
2022/01/30 03:01:08;;;;;;;14.03;9.57;;;;;;;;;;4993684;28;20208;-77
2022/01/30 03:03:35;;;;;;;8.43;6.47;;;;;;;;;;4993472;28;20211;-77
2022/01/30 03:06:02;;;;;;;8.43;5.10;;;;;;;;;;4993527;28;20205;-77
2022/01/30 03:08:30;;;;;;;7.70;5.50;;;;;;;;;;4993470;28;20200;-76
2022/01/30 03:10:58;;;;;;;6.30;4.90;;;;;;;;;;4993416;28;20243;-77
2022/01/30 03:13:26;;;;;;;6.37;4.77;;;;;;;;;;4993675;28;20224;-77
2022/01/30 03:15:53;;;;;;;6.23;4.77;;;;;;;;;;4993178;28;20224;-77
2022/01/30 03:18:20;;;;;;;6.77;5.03;;;;;;;;;;4993349;28;20196;-76
2022/01/30 03:20:48;;;;;;;7.13;5.30;;;;;;;;;;4993538;28;20204;-76
2022/01/30 03:23:15;;;;;;;6.77;5.97;;;;;;;;;;4993235;28;20207;-77
2022/01/30 03:25:43;;;;;;;6.33;5.73;;;;;;;;;;4993132;28;20197;-77
2022/01/30 03:28:11;;;;;;;5.57;5.07;;;;;;;;;;4993162;28;20240;-79
2022/01/30 03:30:38;;;;;;;6.40;5.07;;;;;;;;;;4993472;28;20455;-78
2022/01/30 03:33:06;;;;;;;5.53;5.03;;;;;;;;;;4993279;28;20439;-78
2022/01/30 03:35:33;;;;;;;5.73;4.53;;;;;;;;;;4992985;28;20267;-78
2022/01/30 03:38:00;;;;;;;5.27;4.77;;;;;;;;;;4992780;28;20232;-78
2022/01/30 03:40:27;;;;;;;5.53;4.57;;;;;;;;;;4992968;28;20581;-78
2022/01/30 03:42:54;;;;;;;4.67;3.97;;;;;;;;;;4992860;28;20215;-78
2022/01/30 03:45:23;;;;;;;4.90;4.47;;;;;;;;;;4993150;28;20587;-78
2022/01/30 03:47:55;;;;;;;5.70;4.40;;;;;;;;;;4992809;28;20684;-78
2022/01/30 03:50:22;;;;;;;11.10;6.97;;;;;;;;;;4992837;28;20532;-78
2022/01/30 03:52:50;;;;;;;7.53;5.63;;;;;;;;;;4993075;28;20227;-78
2022/01/30 03:55:17;;;;;;;5.27;4.17;;;;;;;;;;4992881;28;20609;-78
2022/01/30 03:57:45;;;;;;;5.33;4.37;;;;;;;;;;4992673;28;20585;-79
2022/01/30 04:00:13;;;;;;;6.00;4.97;;;;;;;;;;4992685;28;20692;-79
2022/01/30 04:02:41;;;;;;;7.13;5.30;;;;;;;;;;4992113;28;20200;-79
2022/01/30 04:05:09;;;;;;;9.10;6.83;;;;;;;;;;4992861;28;20196;-78
2022/01/30 04:07:36;;;;;;;7.93;6.30;;;;;;;;;;4992574;28;20570;-78
2022/01/30 04:10:05;;;;;;;6.10;5.40;;;;;;;;;;4992837;28;20291;-78
2022/01/30 04:12:33;;;;;;;6.43;5.70;;;;;;;;;;4992592;28;20196;-78
2022/01/30 04:15:01;;;;;;;7.60;6.20;;;;;;;;;;4992473;28;20819;-78
2022/01/30 04:17:28;;;;;;;10.07;7.37;;;;;;;;;;4992532;28;20204;-77
2022/01/30 04:19:57;;;;;;;14.17;10.33;;;;;;;;;;4992734;28;20283;-78
2022/01/30 04:22:25;;;;;;;9.67;7.10;;;;;;;;;;4992665;28;20565;-78
2022/01/30 04:24:52;;;;;;;6.93;6.23;;;;;;;;;;4992462;28;20200;-77
2022/01/30 04:27:20;;;;;;;5.73;5.00;;;;;;;;;;4992389;28;20756;-77
2022/01/30 04:29:47;;;;;;;12.10;6.43;;;;;;;;;;4992413;28;20669;-78
2022/01/30 04:32:16;;;;;;;9.23;5.93;;;;;;;;;;4992375;28;20201;-78
2022/01/30 04:34:51;;;;;;;8.30;5.63;;;;;;;;;;4992600;28;20342;-78
2022/01/30 04:37:26;;;;;;;7.73;5.30;;;;;;;;;;4992164;28;20301;-78
2022/01/30 04:54:10;;;;;;;21.83;14.07;;;;;;;;;;4992351;28;20668;-78
2022/01/30 04:56:55;;;;;;;41.30;27.33;;;;;;;;;;4992096;28;20224;-78
2022/01/30 04:59:44;;;;;;;20.67;15.50;;;;;;;;;;4992153;28;20188;-78
2022/01/30 05:02:28;;;;;;;18.63;14.83;;;;;;;;;;4992415;28;20633;-78
2022/01/30 05:05:10;;;;;;;21.47;14.50;;;;;;;;;;4992382;28;20208;-79
2022/01/30 05:07:38;;;;;;;23.77;16.87;;;;;;;;;;4992098;28;20189;-78
2022/01/30 05:10:08;;;;;;;25.40;15.53;;;;;;;;;;4992043;28;20204;-78
2022/01/30 05:12:42;;;;;;;21.87;14.17;;;;;;;;;;4991983;28;20247;-78
2022/01/30 05:15:11;;;;;;;10.60;8.23;;;;;;;;;;4993949;28;20212;-77
2022/01/30 05:17:38;;;;;;;8.13;7.13;;;;;;;;;;4995888;28;20447;-77
2022/01/30 05:20:07;;;;;;;6.27;5.67;;;;;;;;;;4995800;28;20457;-78
2022/01/30 05:22:35;;;;;;;6.83;6.23;;;;;;;;;;4995442;28;20710;-78
2022/01/30 05:25:03;;;;;;;6.63;4.90;;;;;;;;;;4995714;28;20454;-78
2022/01/30 05:27:32;;;;;;;18.07;12.90;;;;;;;;;;4995490;28;20198;-78
2022/01/30 05:30:00;;;;;;;15.90;9.77;;;;;;;;;;4993339;28;20242;-77
2022/01/30 05:32:27;;;;;;;59.37;38.53;;;;;;;;;;4995147;28;20197;-78
2022/01/30 05:34:56;;;;;;;59.10;31.33;;;;;;;;;;4995060;28;20204;-77
2022/01/30 05:37:23;;;;;;;11.87;7.60;;;;;;;;;;4994944;28;20479;-78
2022/01/30 05:39:51;;;;;;;30.67;19.93;;;;;;;;;;4995004;28;20192;-78
2022/01/30 05:42:20;;;;;;;133.90;69.90;;;;;;;;;;4994918;28;20446;-78
2022/01/30 05:44:57;;;;;;;26.47;17.13;;;;;;;;;;4995217;28;20226;-77
2022/01/30 05:47:31;;;;;;;22.07;15.03;;;;;;;;;;4994944;28;20192;-77
2022/01/30 05:49:59;;;;;;;34.53;18.93;;;;;;;;;;4995143;28;20192;-78
2022/01/30 05:52:26;;;;;;;11.27;6.90;;;;;;;;;;4995067;28;20665;-77
2022/01/30 05:54:53;;;;;;;8.67;6.43;;;;;;;;;;4995037;28;20200;-77
2022/01/30 05:57:20;;;;;;;18.43;12.57;;;;;;;;;;4994780;28;20206;-77
2022/01/30 05:59:49;;;;;;;23.33;14.27;;;;;;;;;;4994658;28;20906;-78
2022/01/30 06:02:16;;;;;;;13.13;9.03;;;;;;;;;;4994473;28;20211;-78
2022/01/30 06:04:43;;;;;;;12.87;10.47;;;;;;;;;;4994329;28;20208;-78
2022/01/30 06:07:12;;;;;;;11.40;7.90;;;;;;;;;;4994477;28;20259;-78
2022/01/30 06:09:39;;;;;;;76.80;45.00;;;;;;;;;;4994673;28;20200;-77
2022/01/30 06:12:07;;;;;;;250.43;113.93;;;;;;;;;;4994560;28;20255;-77
2022/01/30 06:14:34;;;;;;;130.77;64.23;;;;;;;;;;4994829;28;20278;-77
2022/01/30 06:17:03;;;;;;;24.73;16.80;;;;;;;;;;4994379;28;20224;-78
2022/01/30 06:19:31;;;;;;;9.30;7.70;;;;;;;;;;4994355;28;20196;-78
2022/01/30 06:21:58;;;;;;;23.33;13.83;;;;;;;;;;4994703;28;20799;-77
2022/01/30 06:24:25;;;;;;;15.10;11.53;;;;;;;;;;4994574;28;20200;-78
2022/01/30 06:26:52;;;;;;;16.93;12.27;;;;;;;;;;4993975;28;20192;-77
2022/01/30 06:29:19;;;;;;;21.23;14.63;;;;;;;;;;4994602;28;20222;-77
2022/01/30 06:31:46;;;;;;;16.87;12.47;;;;;;;;;;4994200;28;20204;-77
2022/01/30 06:34:15;;;;;;;86.57;51.20;;;;;;;;;;4994212;28;20691;-77
2022/01/30 06:36:42;;;;;;;73.57;55.40;;;;;;;;;;4994020;28;20231;-78
2022/01/30 06:39:11;;;;;;;33.27;24.63;;;;;;;;;;4994328;28;20307;-78
2022/01/30 06:41:38;;;;;;;77.43;44.57;;;;;;;;;;4994069;28;20291;-77
2022/01/30 06:44:07;;;;;;;66.87;42.13;;;;;;;;;;4993913;28;20700;-77
2022/01/30 06:46:35;;;;;;;28.10;19.90;;;;;;;;;;4993922;28;20196;-78
2022/01/30 06:49:02;;;;;;;33.80;22.63;;;;;;;;;;4993881;28;20291;-78
2022/01/30 06:51:30;;;;;;;22.40;13.03;;;;;;;;;;4993765;28;20211;-77
2022/01/30 06:53:58;;;;;;;6.87;6.17;;;;;;;;;;4994052;28;20204;-78
2022/01/30 06:56:25;;;;;;;11.83;7.93;;;;;;;;;;4993520;28;20224;-79
2022/01/30 06:58:56;;;;;;;15.10;9.73;;;;;;;;;;4993648;28;20211;-78
2022/01/30 07:01:25;;;;;;;10.73;7.53;;;;;;;;;;4991378;28;20208;-78
2022/01/30 07:03:52;;;;;;;10.03;8.73;;;;;;;;;;4993675;28;20258;-79
2022/01/30 07:06:19;;;;;;;7.13;6.43;;;;;;;;;;4993452;28;20200;-79
2022/01/30 07:08:48;;;;;;;10.83;8.57;;;;;;;;;;4993286;28;20196;-79
2022/01/30 07:11:16;;;;;;;11.67;9.03;;;;;;;;;;4993182;28;20200;-79
2022/01/30 07:13:43;;;;;;;11.17;8.47;;;;;;;;;;4993609;28;20235;-79
2022/01/30 07:16:10;;;;;;;11.40;9.27;;;;;;;;;;4993153;28;20228;-80
2022/01/30 07:18:38;;;;;;;7.93;6.40;;;;;;;;;;4993196;28;20200;-80
2022/01/30 07:21:07;;;;;;;8.27;7.47;;;;;;;;;;4993146;28;20207;-80
2022/01/30 07:23:34;;;;;;;8.43;6.70;;;;;;;;;;4993064;28;20200;-80
2022/01/30 07:26:03;;;;;;;8.00;5.47;;;;;;;;;;4992972;28;20200;-81
2022/01/30 07:28:31;;;;;;;8.50;5.80;;;;;;;;;;4993275;28;20203;-80
2022/01/30 07:30:58;;;;;;;9.50;5.30;;;;;;;;;;4992857;28;20197;-81
2022/01/30 07:33:25;;;;;;;7.90;6.13;;;;;;;;;;4992784;28;20250;-81
2022/01/30 07:35:55;;;;;;;9.80;6.43;;;;;;;;;;4992754;28;20227;-80
2022/01/30 07:38:22;;;;;;;6.93;6.23;;;;;;;;;;4991561;28;20206;-81
2022/01/30 07:40:49;;;;;;;7.57;6.27;;;;;;;;;;4992808;28;20295;-82
2022/01/30 07:43:18;;;;;;;7.87;5.87;;;;;;;;;;4992703;28;20211;-81
2022/01/30 07:45:46;;;;;;;8.23;6.90;;;;;;;;;;4992729;28;20296;-81
2022/01/30 07:48:15;;;;;;;11.40;7.40;;;;;;;;;;4992651;28;20663;-82
2022/01/30 07:50:42;;;;;;;13.00;9.47;;;;;;;;;;4992966;28;20274;-82
2022/01/30 07:53:09;;;;;;;21.67;13.70;;;;;;;;;;4992335;28;20295;-81
2022/01/30 07:55:37;;;;;;;35.37;21.30;;;;;;;;;;4992585;28;20226;-82
2022/01/30 07:58:04;;;;;;;39.63;26.27;;;;;;;;;;4992455;28;20192;-83
2022/01/30 08:00:32;;;;;;;29.40;18.50;;;;;;;;;;4991730;28;20207;-83
2022/01/30 08:03:00;;;;;;;7.93;7.13;;;;;;;;;;4992237;28;20326;-82
2022/01/30 08:05:31;;;;;;;9.87;8.03;;;;;;;;;;4992370;28;20597;-82
2022/01/30 08:07:58;;;;;;;7.83;6.13;;;;;;;;;;4993049;28;20306;-82
2022/01/30 08:10:26;;;;;;;6.77;6.17;;;;;;;;;;4992715;28;20201;-82
2022/01/30 08:12:53;;;;;;;6.53;5.30;;;;;;;;;;4992585;28;20587;-81
2022/01/30 08:15:20;;;;;;;10.47;7.50;;;;;;;;;;4992213;28;20673;-82
2022/01/30 08:17:49;;;;;;;7.63;6.37;;;;;;;;;;4992285;28;20231;-80
2022/01/30 08:20:16;;;;;;;6.03;4.93;;;;;;;;;;4992578;28;20622;-82
2022/01/30 08:22:48;;;;;;;5.13;3.70;;;;;;;;;;4992393;28;20196;-82
2022/01/30 08:25:15;;;;;;;7.07;6.10;;;;;;;;;;4992298;28;20283;-82
2022/01/30 08:27:42;;;;;;;4.23;3.90;;;;;;;;;;4992343;28;20287;-82
2022/01/30 08:30:10;;;;;;;5.70;4.80;;;;;;;;;;4992210;28;20216;-82
2022/01/30 08:32:41;;;;;;;6.23;4.67;;;;;;;;;;4992013;28;20283;-82
2022/01/30 08:35:11;;;;;;;5.43;4.40;;;;;;;;;;4992214;28;20204;-81
2022/01/30 08:37:38;;;;;;;6.23;5.63;;;;;;;;;;4991920;28;20243;-81
2022/01/30 08:40:06;;;;;;;4.97;3.83;;;;;;;;;;4992105;28;20199;-82
2022/01/30 08:42:34;;;;;;;4.17;3.77;;;;;;;;;;4992395;28;20200;-82
2022/01/30 08:45:01;;;;;;;5.13;3.97;;;;;;;;;;4992181;28;20204;-81
2022/01/30 08:47:29;;;;;;;4.93;4.43;;;;;;;;;;4991976;28;20203;-82
2022/01/30 08:49:56;;;;;;;3.80;3.50;;;;;;;;;;4993808;28;20685;-82
2022/01/30 08:52:24;;;;;;;4.17;3.77;;;;;;;;;;4996144;28;20580;-82
2022/01/30 08:54:52;;;;;;;3.37;2.90;;;;;;;;;;4995865;28;20254;-82
2022/01/30 08:57:20;;;;;;;3.93;3.40;;;;;;;;;;4995567;28;20227;-82
2022/01/30 08:59:47;;;;;;;3.67;2.90;;;;;;;;;;4995646;28;20295;-81
2022/01/30 09:02:15;;;;;;;5.53;4.10;;;;;;;;;;4995703;28;20202;-82
2022/01/30 09:04:42;;;;;;;4.03;3.67;;;;;;;;;;4995591;28;20204;-82
2022/01/30 09:07:10;;;;;;;8.23;5.87;;;;;;;;;;4995428;28;20197;-82
2022/01/30 09:09:38;;;;;;;13.00;7.53;;;;;;;;;;4995497;28;20200;-82
2022/01/30 09:12:06;;;;;;;23.43;19.90;;;;;;;;;;4995645;28;20689;-82
2022/01/30 09:14:33;;;;;;;25.40;22.70;;;;;;;;;;4995829;28;20207;-83
2022/01/30 09:17:01;;;;;;;6.80;6.20;;;;;;;;;;4994316;28;20224;-82
2022/01/30 09:19:28;;;;;;;25.90;23.20;;;;;;;;;;4993567;28;20211;-81
2022/01/30 09:21:55;;;;;;;6.20;5.60;;;;;;;;;;4993933;28;20300;-81
2022/01/30 09:24:22;;;;;;;5.13;4.63;;;;;;;;;;4988452;28;20353;-81
2022/01/30 09:26:51;;;;;;;12.20;11.13;;;;;;;;;;4994428;28;20204;-81
2022/01/30 09:29:18;;;;;;;153.37;85.03;;;;;;;;;;4994482;28;20733;-82
2022/01/30 09:31:45;;;;;;;16.30;13.97;;;;;;;;;;4993844;28;20197;-81
2022/01/30 09:34:12;;;;;;;5.93;5.00;;;;;;;;;;4994894;28;20299;-82
2022/01/30 09:36:40;;;;;;;5.40;4.43;;;;;;;;;;4994934;28;20240;-82
2022/01/30 09:39:07;;;;;;;6.07;5.53;;;;;;;;;;4995455;28;20722;-82
2022/01/30 09:41:35;;;;;;;7.07;5.97;;;;;;;;;;4995399;28;20576;-82
2022/01/30 09:44:04;;;;;;;17.23;11.10;;;;;;;;;;4995179;28;20195;-82
2022/01/30 09:46:32;;;;;;;16.47;12.37;;;;;;;;;;4995044;28;20203;-82
2022/01/30 09:49:00;;;;;;;11.00;9.43;;;;;;;;;;4995041;28;20291;-82
2022/01/30 09:51:27;;;;;;;19.77;11.97;;;;;;;;;;4995028;28;20216;-82
2022/01/30 09:53:54;;;;;;;10.00;8.73;;;;;;;;;;4994970;28;20200;-82
2022/01/30 09:56:21;;;;;;;7.57;5.30;;;;;;;;;;4994747;28;20200;-82
2022/01/30 09:58:48;;;;;;;5.97;5.07;;;;;;;;;;4994839;28;20196;-82
2022/01/30 10:01:17;;;;;;;5.00;4.47;;;;;;;;;;4993748;28;20204;-83
2022/01/30 10:03:44;;;;;;;17.57;10.20;;;;;;;;;;4994773;28;20196;-83
2022/01/30 10:06:15;;;;;;;10.13;6.90;;;;;;;;;;4994738;28;20215;-82
2022/01/30 10:08:45;;;;;;;5.93;4.30;;;;;;;;;;4995069;28;20263;-82
2022/01/30 10:14:07;;;;;;;10.60;6.03;;;;;;;;;;4990861;28;20199;-83
2022/01/30 10:16:37;;;;;;;8.90;6.00;;;;;;;;;;4994444;28;20227;-82
2022/01/30 10:19:12;;;;;;;9.20;6.83;;;;;;;;;;4994491;28;20184;-82
2022/01/30 10:21:40;;;;;;;5.50;4.80;;;;;;;;;;4994456;28;20199;-83
2022/01/30 10:24:23;;;;;;;10.00;4.43;;;;;;;;;;4994716;28;20200;-82
2022/01/30 10:26:51;;;;;;;4.83;4.10;;;;;;;;;;4994715;28;20192;-82
2022/01/30 10:29:19;;;;;;;6.63;4.63;;;;;;;;;;4994281;28;20212;-83
2022/01/30 10:32:04;;;;;;;6.07;3.67;;;;;;;;;;4994300;28;20200;-82
2022/01/30 10:34:31;;;;;;;4.60;4.13;;;;;;;;;;4993041;28;20200;-82
2022/01/30 10:37:18;;;;;;;4.70;4.20;;;;;;;;;;4994087;28;20236;-82
2022/01/30 10:40:10;;;;;;;14.73;7.70;;;;;;;;;;4994099;28;20193;-83
2022/01/30 10:42:43;;;;;;;29.27;24.20;;;;;;;;;;4994072;28;20200;-82
2022/01/30 10:45:12;;;;;;;6.97;6.23;;;;;;;;;;4994045;28;20196;-82
2022/01/30 10:47:42;;;;;;;4.70;4.20;;;;;;;;;;4991955;28;20231;-82
2022/01/30 10:50:15;;;;;;;4.50;4.10;;;;;;;;;;4993112;28;20188;-83
2022/01/30 10:52:57;;;;;;;4.67;4.27;;;;;;;;;;4992772;28;20211;-82
2022/01/30 10:55:39;;;;;;;11.80;10.60;;;;;;;;;;4992747;28;20192;-83
2022/01/30 10:58:08;;;;;;;12.70;11.37;;;;;;;;;;4992825;28;20679;-83
2022/01/30 11:00:39;;;;;;;11.83;10.73;;;;;;;;;;4992355;28;20196;-83
2022/01/30 11:03:09;;;;;;;15.30;13.77;;;;;;;;;;4992604;28;20212;-83
2022/01/30 11:05:54;;;;;;;20.13;17.50;;;;;;;;;;4992883;28;20589;-83
2022/01/30 11:08:25;;;;;;;9.40;8.50;;;;;;;;;;4991905;28;20192;-83
2022/01/30 11:11:05;;;;;;;7.60;6.67;;;;;;;;;;4992534;28;20180;-83
2022/01/30 11:13:33;;;;;;;8.37;7.07;;;;;;;;;;4991934;28;20677;-83
2022/01/30 11:18:51;;;;;;;4.47;4.03;;;;;;;;;;4992410;28;20319;-83
2022/01/30 11:21:22;;;;;;;5.37;4.83;;;;;;;;;;4992473;28;20184;-83
2022/01/30 11:23:51;;;;;;;6.80;6.17;;;;;;;;;;4992223;28;20192;-83
2022/01/30 11:26:19;;;;;;;14.17;9.57;;;;;;;;;;4992066;28;20627;-83
2022/01/30 11:28:46;;;;;;;15.43;9.63;;;;;;;;;;4992213;28;20196;-83
2022/01/30 11:31:16;;;;;;;14.07;8.57;;;;;;;;;;4992081;28;20290;-84
2022/01/30 11:33:44;;;;;;;8.10;6.50;;;;;;;;;;4992362;28;20196;-83
2022/01/30 11:36:13;;;;;;;9.73;7.10;;;;;;;;;;4991927;28;20351;-83
2022/01/30 11:38:42;;;;;;;10.17;8.07;;;;;;;;;;4992012;28;20304;-84
2022/01/30 11:41:13;;;;;;;4.63;3.73;;;;;;;;;;4991602;28;20200;-83
2022/01/30 11:43:43;;;;;;;6.37;4.13;;;;;;;;;;4991880;28;20215;-84
2022/01/30 11:46:17;;;;;;;5.10;4.57;;;;;;;;;;4992084;28;20200;-84
2022/01/30 11:49:14;;;;;;;3.50;3.20;;;;;;;;;;4991981;28;20188;-84
2022/01/30 11:51:52;;;;;;;6.73;4.20;;;;;;;;;;4991751;28;20188;-84
2022/01/30 11:54:37;;;;;;;3.83;3.47;;;;;;;;;;4991419;28;20199;-84
2022/01/30 11:57:05;;;;;;;6.37;4.37;;;;;;;;;;4991812;28;20216;-84
2022/01/30 11:59:41;;;;;;;10.30;9.13;;;;;;;;;;4991677;28;20200;-84
2022/01/30 12:02:24;;;;;;;10.33;6.77;;;;;;;;;;4991790;28;20189;-85
2022/01/30 12:04:55;;;;;;;6.30;4.27;;;;;;;;;;4991650;28;20208;-84
2022/01/30 12:07:35;;;;;;;2.93;2.63;;;;;;;;;;4991808;28;20287;-84
2022/01/30 12:10:33;;;;;;;6.27;5.40;;;;;;;;;;4991981;28;20210;-84
2022/01/30 12:13:01;;;;;;;5.90;4.83;;;;;;;;;;4992153;28;20262;-84
2022/01/30 12:15:39;;;;;;;7.30;3.77;;;;;;;;;;4991902;28;20212;-84
2022/01/30 12:18:07;;;;;;;3.80;2.67;;;;;;;;;;4991707;28;20214;-85
2022/01/30 12:21:01;;;;;;;3.93;3.13;;;;;;;;;;4991658;28;20578;-85
2022/01/30 12:23:30;;;;;;;3.00;2.70;;;;;;;;;;4991686;28;20642;-85
2022/01/30 12:26:04;;;;;;;3.43;2.60;;;;;;;;;;4995381;28;20318;-85
2022/01/30 12:28:41;;;;;;;3.83;2.70;;;;;;;;;;4995908;28;20181;-84
2022/01/30 12:31:26;;;;;;;2.40;2.20;;;;;;;;;;4995748;28;20199;-85
2022/01/30 12:34:01;;;;;;;3.73;2.80;;;;;;;;;;4995058;28;20200;-85
2022/01/30 12:36:30;;;;;;;2.60;2.40;;;;;;;;;;4995246;28;20279;-84
2022/01/30 12:39:10;;;;;;;2.73;2.30;;;;;;;;;;4995444;28;20278;-84
2022/01/30 12:41:40;;;;;;;3.27;2.97;;;;;;;;;;4995215;28;20185;-84
2022/01/30 12:44:09;;;;;;;2.43;2.20;;;;;;;;;;4995566;28;20207;-84
2022/01/30 12:46:39;;;;;;;3.13;2.43;;;;;;;;;;4994978;28;20204;-84
2022/01/30 12:49:12;;;;;;;5.00;2.07;;;;;;;;;;4995466;28;20275;-84
2022/01/30 12:51:41;;;;;;;2.50;2.30;;;;;;;;;;4995195;28;20189;-84
2022/01/30 12:54:11;;;;;;;4.27;3.87;;;;;;;;;;4995444;28;20643;-84
2022/01/30 12:56:38;;;;;;;4.47;2.83;;;;;;;;;;4995081;28;20359;-84
2022/01/30 12:59:10;;;;;;;2.97;2.63;;;;;;;;;;4994986;28;20220;-84
2022/01/30 13:01:41;;;;;;;3.93;2.80;;;;;;;;;;4994993;28;20658;-84
2022/01/30 13:04:10;;;;;;;4.87;4.37;;;;;;;;;;4994928;28;20380;-84
2022/01/30 13:06:39;;;;;;;2.63;2.17;;;;;;;;;;4995097;28;20201;-84
2022/01/30 13:09:07;;;;;;;4.30;2.53;;;;;;;;;;4994833;28;20199;-84
2022/01/30 13:11:36;;;;;;;3.23;2.90;;;;;;;;;;4994399;28;20565;-84
2022/01/30 13:14:06;;;;;;;5.57;2.50;;;;;;;;;;4994674;28;20206;-83
2022/01/30 13:16:39;;;;;;;4.67;3.03;;;;;;;;;;4994975;28;20200;-84
2022/01/30 13:19:08;;;;;;;2.63;2.37;;;;;;;;;;4994781;28;20209;-84
2022/01/30 13:21:37;;;;;;;3.43;2.63;;;;;;;;;;4994621;28;20200;-84
2022/01/30 13:24:06;;;;;;;3.20;2.90;;;;;;;;;;4994582;28;20371;-83
2022/01/30 13:26:42;;;;;;;4.83;3.13;;;;;;;;;;4994589;28;20200;-83
2022/01/30 13:29:15;;;;;;;4.17;3.30;;;;;;;;;;4994815;28;20238;-83
2022/01/30 13:31:43;;;;;;;4.40;2.10;;;;;;;;;;4994365;28;20279;-83
2022/01/30 13:34:13;;;;;;;5.80;4.60;;;;;;;;;;4994326;28;20681;-83
2022/01/30 13:36:41;;;;;;;3.37;3.03;;;;;;;;;;4993919;28;20232;-83
2022/01/30 13:39:12;;;;;;;3.47;2.40;;;;;;;;;;4994228;28;20228;-84
2022/01/30 13:41:59;;;;;;;3.33;2.37;;;;;;;;;;4994249;28;20268;-84
2022/01/30 13:44:26;;;;;;;4.03;2.87;;;;;;;;;;4994234;28;20598;-84
2022/01/30 13:46:57;;;;;;;2.50;2.30;;;;;;;;;;4994507;28;20254;-84
2022/01/30 13:49:25;;;;;;;3.53;3.20;;;;;;;;;;4994429;28;20203;-84
2022/01/30 13:52:07;;;;;;;5.20;3.60;;;;;;;;;;4993940;28;20853;-84
2022/01/30 13:54:34;;;;;;;3.67;3.33;;;;;;;;;;4993953;28;20208;-83
2022/01/30 13:57:04;;;;;;;3.67;3.20;;;;;;;;;;4994158;28;20224;-84
2022/01/30 13:59:32;;;;;;;3.83;2.90;;;;;;;;;;4994147;28;20228;-84
2022/01/30 14:02:02;;;;;;;2.93;2.47;;;;;;;;;;4994113;28;20196;-84
2022/01/30 14:04:30;;;;;;;4.33;2.80;;;;;;;;;;4993517;28;20267;-84
2022/01/30 14:06:59;;;;;;;3.50;2.30;;;;;;;;;;4993746;28;20211;-84
2022/01/30 14:09:36;;;;;;;3.17;2.87;;;;;;;;;;4993687;28;20403;-84
2022/01/30 14:12:08;;;;;;;3.20;2.50;;;;;;;;;;4993670;28;20184;-84
2022/01/30 14:14:38;;;;;;;5.63;2.67;;;;;;;;;;4993602;28;20180;-83
2022/01/30 14:17:09;;;;;;;3.33;2.40;;;;;;;;;;4993633;28;20196;-83
2022/01/30 14:19:42;;;;;;;3.37;2.50;;;;;;;;;;4993464;28;20215;-84
2022/01/30 14:22:15;;;;;;;2.93;2.70;;;;;;;;;;4993495;28;20651;-84
2022/01/30 14:24:50;;;;;;;3.53;2.47;;;;;;;;;;4993404;28;20666;-83
2022/01/30 14:27:21;;;;;;;2.87;2.57;;;;;;;;;;4993298;28;20290;-83
2022/01/30 14:29:54;;;;;;;3.20;2.60;;;;;;;;;;4993184;28;20188;-83
2022/01/30 14:32:21;;;;;;;4.23;3.63;;;;;;;;;;4993375;28;20775;-84
2022/01/30 14:34:49;;;;;;;3.83;3.03;;;;;;;;;;4993577;28;20257;-84
2022/01/30 14:37:18;;;;;;;4.33;3.50;;;;;;;;;;4993030;28;20243;-83
2022/01/30 14:39:45;;;;;;;5.60;5.10;;;;;;;;;;4992865;28;20597;-83
2022/01/30 14:42:13;;;;;;;3.83;2.73;;;;;;;;;;4992450;28;20204;-84
2022/01/30 14:44:42;;;;;;;3.27;2.60;;;;;;;;;;4992971;28;20204;-83
2022/01/30 14:47:10;;;;;;;3.33;3.03;;;;;;;;;;4990999;28;20715;-84
2022/01/30 14:49:37;;;;;;;3.67;3.33;;;;;;;;;;4992714;28;20283;-83
2022/01/30 14:52:06;;;;;;;5.23;3.87;;;;;;;;;;4992615;28;20576;-83
2022/01/30 14:54:33;;;;;;;4.63;3.77;;;;;;;;;;4992917;28;20598;-83
2022/01/30 14:57:03;;;;;;;7.17;6.57;;;;;;;;;;4992601;28;20199;-84
2022/01/30 14:59:30;;;;;;;4.90;4.33;;;;;;;;;;4991782;28;20244;-83
2022/01/30 15:01:59;;;;;;;10.17;6.17;;;;;;;;;;4992407;28;20223;-83
2022/01/30 15:04:27;;;;;;;7.60;4.97;;;;;;;;;;4992435;28;20196;-83
2022/01/30 15:06:54;;;;;;;7.47;5.33;;;;;;;;;;4992358;28;20295;-83
2022/01/30 15:09:21;;;;;;;7.57;4.00;;;;;;;;;;4992626;28;20211;-82
2022/01/30 15:11:49;;;;;;;6.20;4.93;;;;;;;;;;4991911;28;20207;-83
2022/01/30 15:14:22;;;;;;;4.20;2.73;;;;;;;;;;4992335;28;20200;-83
2022/01/30 15:16:51;;;;;;;3.30;2.77;;;;;;;;;;4992209;28;20192;-83
2022/01/30 15:19:20;;;;;;;3.63;1.57;;;;;;;;;;4992185;28;20224;-82
2022/01/30 15:21:48;;;;;;;3.53;1.30;;;;;;;;;;4992428;28;20287;-83
2022/01/30 15:24:15;;;;;;;1.70;1.60;;;;;;;;;;4992127;28;20268;-84
2022/01/30 15:26:43;;;;;;;2.77;2.17;;;;;;;;;;4991745;28;20295;-83
2022/01/30 15:29:11;;;;;;;6.30;2.50;;;;;;;;;;4992127;28;20581;-83
2022/01/30 15:31:38;;;;;;;1.67;1.57;;;;;;;;;;4991893;28;20207;-83